Time;durP1;ratioP1;P1;durP2;ratioP2;P2;SDS_P1;SDS_P2;PMS_P1;PMS_P2;Temp;Humidity;BMP_temperature;BMP_pressure;BME280_temperature;BME280_humidity;BME280_pressure;Samples;Min_cycle;Max_cycle;Signal;HPM_P1;HPM_P2
2021/11/10 00:00:48;;;;;;;0.88;0.80;;;1.80;99.90;;;;;;5123438;27;20036;-71
2021/11/10 00:03:13;;;;;;;2.40;1.08;;;1.80;99.90;;;;;;5126755;27;20058;-71
2021/11/10 00:05:40;;;;;;;2.30;0.80;;;1.80;99.90;;;;;;5119362;27;20046;-71
2021/11/10 00:08:06;;;;;;;1.45;0.80;;;1.80;99.90;;;;;;5119074;27;20023;-71
2021/11/10 00:10:33;;;;;;;2.17;0.88;;;1.80;99.90;;;;;;5117706;27;20103;-71
2021/11/10 00:15:46;;;;;;;1.23;0.88;;;1.70;99.90;;;;;;5130798;27;20080;-70
2021/11/10 00:18:12;;;;;;;0.70;0.70;;;1.70;99.90;;;;;;5120822;27;20019;-70
2021/11/10 00:20:38;;;;;;;0.85;0.82;;;1.70;99.90;;;;;;5117993;27;20515;-70
2021/11/10 00:23:03;;;;;;;1.48;0.80;;;1.70;99.90;;;;;;5125921;27;20027;-70
2021/11/10 00:25:29;;;;;;;1.02;0.90;;;1.70;99.90;;;;;;5111977;28;20020;-71
2021/11/10 00:27:55;;;;;;;1.85;0.80;;;1.70;99.90;;;;;;5111378;28;20114;-70
2021/11/10 00:30:21;;;;;;;0.98;0.93;;;1.60;99.90;;;;;;5112005;28;20110;-70
2021/11/10 00:32:46;;;;;;;1.67;0.85;;;1.60;99.90;;;;;;5111908;28;20023;-70
2021/11/10 00:35:12;;;;;;;2.40;1.13;;;1.60;99.90;;;;;;5111897;28;20103;-70
2021/11/10 00:37:38;;;;;;;0.80;0.80;;;1.60;99.90;;;;;;5126167;28;20080;-70
2021/11/10 00:40:04;;;;;;;0.70;0.70;;;1.50;99.90;;;;;;5118332;28;20045;-70
2021/11/10 00:42:30;;;;;;;1.48;0.90;;;1.50;99.90;;;;;;5119511;28;20114;-70
2021/11/10 00:44:56;;;;;;;1.20;0.80;;;1.50;99.90;;;;;;5130842;28;20102;-70
2021/11/10 00:47:21;;;;;;;0.73;0.73;;;1.40;99.90;;;;;;5121654;28;20020;-70
2021/11/10 00:49:47;;;;;;;1.48;0.90;;;1.30;99.90;;;;;;5125990;28;20492;-69
2021/11/10 00:52:13;;;;;;;1.70;0.88;;;1.30;99.90;;;;;;5120383;28;20023;-69
2021/11/10 00:54:39;;;;;;;0.95;0.80;;;1.30;99.90;;;;;;5117625;28;20114;-69
2021/11/10 00:57:05;;;;;;;2.63;0.77;;;1.20;99.90;;;;;;5125840;28;20148;-69
2021/11/10 00:59:30;;;;;;;2.28;0.90;;;1.20;99.90;;;;;;5125049;28;20020;-69
2021/11/10 01:01:56;;;;;;;1.27;0.88;;;1.20;99.90;;;;;;5116033;28;20538;-69
2021/11/10 01:04:22;;;;;;;1.33;0.90;;;1.10;99.90;;;;;;5121583;28;20020;-69
2021/11/10 01:06:48;;;;;;;6.07;0.95;;;1.10;99.90;;;;;;5126292;28;20165;-69
2021/11/10 01:09:17;;;;;;;0.80;0.80;;;1.10;99.90;;;;;;5120258;28;20035;-69
2021/11/10 01:11:47;;;;;;;2.67;0.77;;;1.10;99.90;;;;;;5117644;28;20137;-69
2021/11/10 01:14:14;;;;;;;1.10;0.80;;;1.10;99.90;;;;;;5131975;28;20379;-69
2021/11/10 01:16:40;;;;;;;2.35;0.93;;;1.20;99.90;;;;;;5121948;28;20024;-69
2021/11/10 01:19:06;;;;;;;1.63;0.90;;;1.20;99.90;;;;;;5126040;28;20034;-69
2021/11/10 01:21:31;;;;;;;0.80;0.80;;;1.20;99.90;;;;;;5111553;28;20031;-69
2021/11/10 01:23:58;;;;;;;0.93;0.80;;;1.20;99.90;;;;;;5111263;28;20073;-69
2021/11/10 01:26:23;;;;;;;0.80;0.80;;;1.20;99.90;;;;;;5117241;28;20020;-70
2021/11/10 01:28:49;;;;;;;2.47;1.13;;;1.20;99.90;;;;;;5119687;28;20046;-69
2021/11/10 01:31:16;;;;;;;1.23;0.90;;;1.30;99.90;;;;;;5125774;28;20361;-71
2021/11/10 01:33:42;;;;;;;1.67;0.80;;;1.30;99.90;;;;;;5121303;28;20023;-70
2021/11/10 01:36:07;;;;;;;0.73;0.73;;;1.40;99.90;;;;;;5117575;28;20022;-72
2021/11/10 01:38:33;;;;;;;0.95;0.80;;;1.40;99.90;;;;;;5123792;28;20032;-71
2021/11/10 01:40:59;;;;;;;2.53;0.80;;;1.40;99.90;;;;;;5127608;27;20026;-70
2021/11/10 01:43:25;;;;;;;2.83;0.90;;;1.40;99.90;;;;;;5129645;27;20134;-70
2021/11/10 01:45:54;;;;;;;2.22;0.80;;;1.40;99.90;;;;;;5127131;27;20023;-70
2021/11/10 01:48:21;;;;;;;1.55;0.80;;;1.50;99.90;;;;;;5120741;27;20463;-70
2021/11/10 01:50:47;;;;;;;0.73;0.70;;;1.50;99.90;;;;;;5124588;27;20030;-70
2021/11/10 01:53:13;;;;;;;1.13;0.85;;;1.50;99.90;;;;;;5129189;27;20110;-70
2021/11/10 01:55:40;;;;;;;1.13;0.77;;;1.50;99.90;;;;;;5123498;27;20023;-70
2021/11/10 01:58:06;;;;;;;1.08;0.80;;;1.50;99.90;;;;;;5120535;27;20099;-70
2021/11/10 02:00:34;;;;;;;0.98;0.70;;;1.50;99.90;;;;;;5128488;27;20126;-70
2021/11/10 02:03:01;;;;;;;0.70;0.70;;;1.50;99.90;;;;;;5127091;27;20031;-70
2021/11/10 02:05:28;;;;;;;1.05;0.98;;;1.50;99.90;;;;;;5120429;27;20011;-70
2021/11/10 02:07:54;;;;;;;1.23;0.70;;;1.50;99.90;;;;;;5122938;27;20023;-70
2021/11/10 02:10:24;;;;;;;1.05;0.90;;;1.50;99.90;;;;;;5128802;27;20045;-71
2021/11/10 02:12:51;;;;;;;1.23;0.70;;;1.50;99.90;;;;;;5124957;27;20432;-71
2021/11/10 02:15:19;;;;;;;1.15;1.10;;;1.50;99.90;;;;;;5134795;27;20505;-71
2021/11/10 02:17:49;;;;;;;0.77;0.73;;;1.50;99.90;;;;;;5120191;27;20164;-71
2021/11/10 02:20:16;;;;;;;1.95;0.70;;;1.50;99.90;;;;;;5123201;27;20072;-71
2021/11/10 02:22:42;;;;;;;1.38;0.80;;;1.50;99.90;;;;;;5114308;28;20027;-71
2021/11/10 02:54:13;;;;;;;1.05;0.80;;;1.70;99.90;;;;;;5122861;27;20023;-71
2021/11/10 02:56:38;;;;;;;2.30;0.80;;;1.70;99.90;;;;;;5127925;27;20034;-71
2021/11/10 02:59:04;;;;;;;0.80;0.80;;;1.80;99.90;;;;;;5122748;27;20027;-71
2021/11/10 03:01:30;;;;;;;2.25;0.88;;;1.70;99.90;;;;;;5119555;27;20082;-71
2021/11/10 03:03:55;;;;;;;2.28;1.55;;;1.80;99.90;;;;;;5126810;27;20098;-71
2021/11/10 03:06:21;;;;;;;0.77;0.70;;;1.80;99.90;;;;;;5126511;27;20042;-71
2021/11/10 03:08:47;;;;;;;0.93;0.60;;;1.80;99.90;;;;;;5128818;27;20024;-70
2021/11/10 03:11:13;;;;;;;0.80;0.80;;;1.80;99.90;;;;;;5113185;28;20490;-73
2021/11/10 03:13:39;;;;;;;0.60;0.60;;;1.80;99.90;;;;;;5125079;27;20027;-72
2021/11/10 03:16:06;;;;;;;1.17;1.00;;;1.80;99.90;;;;;;5113922;27;20104;-73
2021/11/10 03:18:31;;;;;;;0.85;0.80;;;1.90;99.90;;;;;;5114614;27;20483;-72
2021/11/10 03:20:57;;;;;;;1.88;0.90;;;1.90;99.90;;;;;;5131293;27;20026;-72
2021/11/10 03:23:23;;;;;;;1.17;0.90;;;1.90;99.90;;;;;;5129691;27;20024;-73
2021/11/10 03:25:48;;;;;;;1.92;0.80;;;1.90;99.90;;;;;;5132495;27;20050;-72
2021/11/10 03:28:14;;;;;;;0.93;0.88;;;1.90;99.90;;;;;;5124669;27;20136;-72
2021/11/10 03:30:40;;;;;;;1.33;0.80;;;1.90;99.90;;;;;;5121151;27;20070;-73
2021/11/10 03:33:06;;;;;;;0.75;0.60;;;1.90;99.90;;;;;;5126998;27;20077;-72
2021/11/10 03:35:32;;;;;;;1.30;0.70;;;1.90;99.90;;;;;;5123232;27;20027;-73
2021/11/10 03:37:57;;;;;;;0.80;0.73;;;1.90;99.90;;;;;;5130799;27;20429;-71
2021/11/10 03:40:23;;;;;;;0.70;0.70;;;2.00;99.90;;;;;;5121158;27;20025;-71
2021/11/10 03:42:49;;;;;;;1.40;0.90;;;1.90;99.90;;;;;;5119176;27;20084;-71
2021/11/10 03:45:15;;;;;;;3.17;0.80;;;1.90;99.90;;;;;;5125672;27;20020;-71
2021/11/10 03:47:41;;;;;;;2.38;0.77;;;1.90;99.90;;;;;;5125151;27;20627;-71
2021/11/10 03:50:07;;;;;;;1.40;0.70;;;1.80;99.90;;;;;;5118488;27;20039;-69
2021/11/10 03:52:33;;;;;;;0.95;0.70;;;1.70;99.90;;;;;;5122859;27;20020;-69
2021/11/10 03:54:59;;;;;;;2.25;1.08;;;1.70;99.90;;;;;;5128847;27;20034;-71
2021/11/10 03:57:25;;;;;;;4.13;1.20;;;1.70;99.90;;;;;;5124140;27;20023;-71
2021/11/10 03:59:51;;;;;;;2.63;0.90;;;1.70;99.90;;;;;;5126265;27;20031;-71
2021/11/10 04:02:16;;;;;;;2.42;0.82;;;1.70;99.90;;;;;;5118040;27;20043;-71
2021/11/10 04:04:42;;;;;;;1.20;0.70;;;1.70;99.90;;;;;;5120703;27;20073;-69
2021/11/10 04:07:08;;;;;;;2.38;1.08;;;1.60;99.90;;;;;;5125257;27;20483;-69
2021/11/10 04:09:34;;;;;;;1.63;0.80;;;1.60;99.90;;;;;;5121965;27;20483;-69
2021/11/10 04:11:59;;;;;;;1.90;0.70;;;1.70;99.90;;;;;;5118045;27;20027;-70
2021/11/10 04:14:25;;;;;;;1.98;1.00;;;1.70;99.90;;;;;;5124965;27;20024;-69
2021/11/10 04:16:51;;;;;;;1.25;0.93;;;1.60;99.90;;;;;;5124745;27;20019;-70
2021/11/10 04:19:16;;;;;;;1.65;0.98;;;1.50;99.90;;;;;;5112264;28;20038;-70
2021/11/10 04:21:42;;;;;;;1.48;1.20;;;1.50;99.90;;;;;;5123950;27;20106;-70
2021/11/10 04:24:08;;;;;;;2.75;1.00;;;1.50;99.90;;;;;;5114438;27;20047;-70
2021/11/10 04:26:39;;;;;;;1.70;1.05;;;1.60;99.90;;;;;;5121812;28;20019;-70
2021/11/10 04:29:06;;;;;;;3.25;0.90;;;1.60;99.90;;;;;;5130071;27;20046;-71
2021/11/10 04:31:32;;;;;;;1.02;0.93;;;1.70;99.90;;;;;;5119791;28;20031;-71
2021/11/10 04:33:58;;;;;;;1.33;1.00;;;1.60;99.90;;;;;;5118525;28;20400;-71
2021/11/10 04:36:26;;;;;;;1.55;0.93;;;1.60;99.90;;;;;;5126479;28;20062;-71
2021/11/10 04:38:52;;;;;;;3.78;1.20;;;1.60;99.90;;;;;;5123841;28;20030;-71
2021/11/10 04:41:18;;;;;;;4.72;1.10;;;1.70;99.90;;;;;;5117680;28;20015;-71
2021/11/10 04:43:44;;;;;;;1.15;0.80;;;1.70;99.90;;;;;;5122708;28;20038;-71
2021/11/10 04:46:22;;;;;;;2.80;0.90;;;1.70;99.90;;;;;;5126151;28;20019;-72
2021/11/10 04:48:49;;;;;;;1.13;0.70;;;1.70;99.90;;;;;;5111761;28;20039;-71
2021/11/10 04:51:15;;;;;;;3.20;1.10;;;1.70;99.90;;;;;;5111495;28;20467;-71
2021/11/10 04:53:42;;;;;;;1.83;1.05;;;1.70;99.90;;;;;;5111608;28;20034;-71
2021/11/10 04:56:09;;;;;;;3.03;0.90;;;1.70;99.90;;;;;;5125956;28;20038;-71
2021/11/10 04:58:35;;;;;;;1.50;1.00;;;1.60;99.90;;;;;;5117747;28;20155;-71
2021/11/10 05:01:02;;;;;;;2.08;0.75;;;1.60;99.90;;;;;;5119595;28;20031;-70
2021/11/10 05:03:28;;;;;;;3.10;0.98;;;1.60;99.90;;;;;;5126028;28;20043;-70
2021/11/10 05:05:54;;;;;;;0.88;0.80;;;1.60;99.90;;;;;;5122253;28;20459;-70
2021/11/10 05:08:20;;;;;;;1.02;0.73;;;1.50;99.90;;;;;;5117390;28;20479;-70
2021/11/10 05:10:46;;;;;;;1.13;1.00;;;1.60;99.90;;;;;;5123838;28;20023;-70
2021/11/10 05:13:12;;;;;;;2.15;0.88;;;1.60;99.90;;;;;;5125745;28;20027;-70
2021/11/10 05:15:38;;;;;;;0.85;0.80;;;1.60;99.90;;;;;;5119467;27;20096;-70
2021/11/10 05:18:03;;;;;;;2.28;1.10;;;1.60;99.90;;;;;;5123178;27;20035;-70
2021/11/10 05:20:29;;;;;;;2.28;0.90;;;1.60;99.90;;;;;;5129812;27;20055;-70
2021/11/10 05:22:55;;;;;;;2.45;1.00;;;1.70;99.90;;;;;;5124661;27;20019;-70
2021/11/10 05:25:21;;;;;;;2.90;1.10;;;1.70;99.90;;;;;;5121215;27;20582;-70
2021/11/10 05:27:47;;;;;;;0.70;0.70;;;1.70;99.90;;;;;;5131636;27;20023;-70
2021/11/10 05:30:13;;;;;;;1.42;1.30;;;1.70;99.90;;;;;;5125038;27;20043;-71
2021/11/10 05:32:41;;;;;;;1.90;1.15;;;1.70;99.90;;;;;;5129521;27;20071;-68
2021/11/10 05:35:08;;;;;;;1.27;0.98;;;1.70;99.90;;;;;;5124379;27;20118;-75
2021/11/10 05:37:34;;;;;;;2.55;0.90;;;2.00;99.90;;;;;;5120716;27;20028;-73
2021/11/10 05:40:00;;;;;;;4.43;3.45;;;4.80;99.90;;;;;;5127597;27;20107;-66
2021/11/10 05:42:26;;;;;;;4.60;3.03;;;6.20;99.90;;;;;;5128087;27;20038;-66
2021/11/10 05:44:54;;;;;;;4.05;2.30;;;5.80;99.90;;;;;;5125870;27;20016;-67
2021/11/10 05:47:20;;;;;;;2.13;1.52;;;5.00;99.90;;;;;;5129486;27;20432;-68
2021/11/10 05:49:46;;;;;;;49.42;7.63;;;4.40;99.90;;;;;;5120314;27;20061;-66
2021/11/10 05:52:12;;;;;;;168.95;25.13;;;4.20;99.90;;;;;;5128076;27;20042;-67
2021/11/10 05:54:39;;;;;;;3.45;1.83;;;5.00;99.90;;;;;;5128591;27;20023;-67
2021/11/10 05:57:06;;;;;;;18.40;3.50;;;5.80;99.90;;;;;;5120199;27;20052;-67
2021/11/10 05:59:33;;;;;;;0.60;0.60;;;6.20;99.90;;;;;;5131825;27;20031;-67
2021/11/10 06:02:00;;;;;;;2.78;1.00;;;6.50;99.90;;;;;;5128226;27;20047;-68
2021/11/10 06:04:26;;;;;;;1.45;0.95;;;6.40;99.90;;;;;;5127014;27;20015;-68
2021/11/10 06:06:52;;;;;;;1.05;0.70;;;5.60;99.90;;;;;;5121253;27;20025;-68
2021/11/10 06:09:18;;;;;;;2.83;1.30;;;4.80;99.90;;;;;;5127692;27;20038;-68
2021/11/10 06:11:45;;;;;;;2.22;1.00;;;4.10;99.90;;;;;;5134947;27;20019;-68
2021/11/10 06:14:12;;;;;;;3.33;1.02;;;3.60;99.90;;;;;;5123048;27;20027;-68
2021/11/10 06:16:38;;;;;;;2.35;0.90;;;3.30;99.90;;;;;;5132126;27;20023;-68
2021/11/10 06:19:04;;;;;;;1.55;0.88;;;3.00;99.90;;;;;;5123238;27;20050;-67
2021/11/10 06:21:30;;;;;;;0.90;0.90;;;2.90;99.90;;;;;;5122250;27;20115;-71
2021/11/10 06:23:56;;;;;;;0.95;0.85;;;2.70;99.90;;;;;;5130779;27;20088;-67
2021/11/10 06:26:22;;;;;;;2.63;1.00;;;2.70;99.90;;;;;;5123492;27;20497;-67
2021/11/10 06:28:48;;;;;;;1.02;1.00;;;2.70;99.90;;;;;;5132232;27;20100;-67
2021/11/10 06:31:14;;;;;;;1.38;1.00;;;2.50;99.90;;;;;;5119917;27;20023;-67
2021/11/10 06:33:41;;;;;;;1.33;0.93;;;2.30;99.90;;;;;;5131605;27;20039;-67
2021/11/10 06:36:07;;;;;;;5.13;1.65;;;2.20;99.90;;;;;;5131448;27;20015;-67
2021/11/10 06:38:33;;;;;;;5.18;3.20;;;2.10;99.90;;;;;;5128161;27;20019;-67
2021/11/10 06:40:59;;;;;;;5.78;3.72;;;2.00;99.90;;;;;;5128151;27;20019;-67
2021/11/10 06:43:26;;;;;;;4.95;3.78;;;1.90;99.90;;;;;;5134226;27;20054;-67
2021/11/10 06:45:53;;;;;;;4.70;3.00;;;1.80;99.90;;;;;;5128354;27;20385;-67
2021/11/10 06:48:19;;;;;;;4.32;3.00;;;1.80;99.90;;;;;;5128089;27;20020;-67
2021/11/10 06:50:45;;;;;;;8.15;2.78;;;2.00;99.90;;;;;;5131020;27;20122;-67
2021/11/10 06:53:11;;;;;;;3.53;2.15;;;2.10;99.90;;;;;;5127706;27;20099;-66
2021/11/10 06:55:37;;;;;;;3.47;1.63;;;1.90;99.90;;;;;;5120647;27;20405;-68
2021/11/10 06:58:03;;;;;;;4.97;2.15;;;1.80;99.90;;;;;;5125347;27;20023;-68
2021/11/10 07:00:30;;;;;;;3.83;2.00;;;1.70;99.90;;;;;;5127943;27;20903;-67
2021/11/10 07:02:55;;;;;;;5.82;2.10;;;1.60;99.90;;;;;;5128026;27;20031;-67
2021/11/10 07:05:21;;;;;;;2.92;1.67;;;1.60;99.90;;;;;;5132156;27;20019;-67
2021/11/10 07:07:47;;;;;;;3.70;1.95;;;1.60;99.90;;;;;;5127913;27;20036;-67
2021/11/10 07:10:13;;;;;;;2.28;1.60;;;1.60;99.90;;;;;;5127629;27;20038;-67
2021/11/10 07:12:39;;;;;;;2.85;1.73;;;1.60;99.90;;;;;;5132332;27;20471;-67
2021/11/10 07:15:05;;;;;;;2.20;1.60;;;1.50;99.90;;;;;;5129069;27;20106;-67
2021/11/10 07:17:31;;;;;;;5.00;2.10;;;1.40;99.90;;;;;;5127567;27;20483;-67
2021/11/10 07:19:57;;;;;;;3.17;2.00;;;1.30;99.90;;;;;;5127789;27;20035;-67
2021/11/10 07:22:24;;;;;;;2.28;2.08;;;1.80;99.90;;;;;;5133652;27;20027;-67
2021/11/10 07:24:49;;;;;;;3.75;2.67;;;2.10;99.90;;;;;;5130205;27;20064;-67
2021/11/10 07:27:15;;;;;;;7.43;4.07;;;1.90;99.90;;;;;;5121909;27;20027;-67
2021/11/10 07:29:41;;;;;;;3.08;2.42;;;1.70;99.90;;;;;;5129775;27;20035;-67
2021/11/10 07:32:07;;;;;;;2.13;1.50;;;1.50;99.90;;;;;;5129922;27;20023;-67
2021/11/10 07:34:34;;;;;;;2.53;1.40;;;1.40;99.90;;;;;;5128538;27;20102;-68
2021/11/10 07:36:59;;;;;;;11.93;2.08;;;1.30;99.90;;;;;;5123196;27;20011;-68
2021/11/10 07:39:25;;;;;;;7.88;2.60;;;1.30;99.90;;;;;;5117880;27;20031;-68
2021/11/10 07:41:52;;;;;;;3.53;1.50;;;2.60;99.90;;;;;;5133007;27;20106;-68
2021/11/10 07:44:18;;;;;;;6.55;1.90;;;3.50;99.90;;;;;;5115632;27;20433;-67
2021/11/10 07:47:03;;;;;;;5.57;1.45;;;3.40;99.90;;;;;;5116343;27;20019;-68
2021/11/10 07:49:29;;;;;;;1.20;0.93;;;2.90;99.90;;;;;;5116775;27;20686;-67
2021/11/10 07:51:55;;;;;;;2.80;1.20;;;2.40;99.90;;;;;;5129936;27;20019;-65
2021/11/10 07:54:20;;;;;;;6.65;1.40;;;2.10;99.90;;;;;;5125841;27;20030;-63
2021/11/10 07:56:46;;;;;;;4.97;1.83;;;2.00;99.90;;;;;;5126076;27;20035;-63
2021/11/10 07:59:12;;;;;;;4.50;1.60;;;1.80;99.90;;;;;;5124902;27;20018;-63
2021/11/10 08:01:37;;;;;;;3.28;1.75;;;1.70;99.90;;;;;;5130417;27;20372;-63
2021/11/10 08:04:03;;;;;;;1.98;1.50;;;1.60;99.90;;;;;;5120877;27;20493;-63
2021/11/10 08:06:31;;;;;;;3.53;1.60;;;1.60;99.90;;;;;;5128127;27;20604;-61
2021/11/10 08:08:57;;;;;;;3.47;1.38;;;1.50;99.90;;;;;;5131770;27;20023;-61
2021/11/10 08:11:22;;;;;;;2.85;1.55;;;1.50;99.90;;;;;;5116880;27;20478;-61
2021/11/10 08:13:48;;;;;;;3.33;1.40;;;1.50;99.90;;;;;;5131205;27;20023;-61
2021/11/10 08:16:14;;;;;;;3.90;1.50;;;1.50;99.90;;;;;;5129595;27;20088;-61
2021/11/10 08:18:39;;;;;;;3.53;1.65;;;1.50;99.90;;;;;;5126740;27;20057;-61
2021/11/10 08:21:05;;;;;;;2.58;1.50;;;1.50;99.90;;;;;;5132643;27;20386;-61
2021/11/10 08:23:31;;;;;;;3.65;1.77;;;1.50;99.90;;;;;;5128817;27;20031;-61
2021/11/10 08:25:58;;;;;;;6.93;1.92;;;1.40;99.90;;;;;;5125794;27;20099;-63
2021/11/10 08:28:25;;;;;;;3.88;1.80;;;1.50;99.90;;;;;;5121734;27;20024;-63
2021/11/10 08:30:51;;;;;;;3.50;1.50;;;1.70;99.90;;;;;;5131774;27;20508;-63
2021/11/10 08:33:18;;;;;;;3.22;1.70;;;1.70;99.90;;;;;;5119712;27;20491;-64
2021/11/10 08:35:44;;;;;;;6.10;2.25;;;1.80;99.90;;;;;;5125810;27;20084;-63
2021/11/10 08:38:10;;;;;;;13.18;2.20;;;2.30;99.90;;;;;;5123383;27;20038;-63
2021/11/10 08:40:37;;;;;;;7.32;2.05;;;2.20;99.90;;;;;;5130075;28;20031;-63
2021/11/10 08:43:03;;;;;;;12.63;2.17;;;2.00;99.90;;;;;;5130276;28;20169;-63
2021/11/10 08:45:33;;;;;;;4.60;1.70;;;1.90;99.90;;;;;;5117485;28;20069;-63
2021/11/10 08:48:04;;;;;;;5.47;1.85;;;1.80;99.90;;;;;;5127456;27;20038;-64
2021/11/10 08:50:31;;;;;;;8.23;1.73;;;1.80;99.90;;;;;;5115944;27;20464;-64
2021/11/10 08:52:58;;;;;;;13.85;1.85;;;1.80;99.90;;;;;;5118545;27;20106;-64
2021/11/10 08:55:24;;;;;;;11.88;2.10;;;1.70;99.90;;;;;;5133461;27;20023;-64
2021/11/10 08:57:51;;;;;;;4.35;1.95;;;1.70;99.90;;;;;;5133635;27;20079;-64
2021/11/10 09:00:26;;;;;;;4.22;2.10;;;1.70;99.90;;;;;;5124731;27;20037;-64
2021/11/10 09:02:53;;;;;;;3.83;1.85;;;1.70;99.90;;;;;;5133577;27;20397;-64
2021/11/10 09:05:19;;;;;;;6.32;1.80;;;1.70;99.90;;;;;;5127050;27;20031;-64
2021/11/10 09:07:45;;;;;;;4.03;1.70;;;1.70;99.90;;;;;;5130855;27;20352;-64
2021/11/10 09:10:13;;;;;;;5.13;1.38;;;1.70;99.90;;;;;;5130670;27;20116;-64
2021/11/10 09:12:40;;;;;;;5.15;1.65;;;1.70;99.90;;;;;;5133144;27;20118;-64
2021/11/10 09:15:08;;;;;;;8.52;1.90;;;1.70;99.90;;;;;;5131964;27;20081;-64
2021/11/10 09:17:35;;;;;;;8.98;2.15;;;1.80;99.90;;;;;;5128190;27;20046;-64
2021/11/10 09:20:05;;;;;;;8.65;2.33;;;1.80;99.90;;;;;;5128860;27;20473;-64
2021/11/10 09:22:31;;;;;;;;;;;1.80;99.90;;;;;;5136046;27;20111;-64
2021/11/10 09:24:57;;;;;;;6.50;1.50;;;1.80;99.90;;;;;;5126225;27;19904;-64
2021/11/10 09:27:23;;;;;;;6.07;2.80;;;1.80;99.90;;;;;;5129743;27;20103;-63
2021/11/10 09:29:49;;;;;;;7.40;1.92;;;1.80;99.90;;;;;;5135798;27;20204;-63
2021/11/10 09:32:15;;;;;;;9.98;2.00;;;1.80;99.90;;;;;;5122085;27;20095;-63
2021/11/10 09:34:41;;;;;;;6.18;1.70;;;1.80;99.90;;;;;;5129183;27;20073;-63
2021/11/10 09:37:07;;;;;;;8.75;1.80;;;1.80;99.90;;;;;;5127059;27;20019;-63
2021/11/10 09:39:33;;;;;;;6.95;1.88;;;1.80;99.90;;;;;;5117772;27;20027;-63
2021/11/10 09:41:59;;;;;;;3.90;1.92;;;1.80;99.90;;;;;;5114950;28;20024;-63
2021/11/10 09:44:25;;;;;;;12.30;2.75;;;1.80;99.90;;;;;;5114556;28;20036;-63
2021/11/10 09:46:52;;;;;;;18.35;4.60;;;1.80;99.90;;;;;;5122463;27;20026;-63
2021/11/10 09:49:18;;;;;;;16.35;4.70;;;1.80;99.90;;;;;;5121174;27;20032;-64
2021/11/10 09:51:47;;;;;;;25.42;7.85;;;1.80;99.90;;;;;;5129396;27;20023;-64
2021/11/10 09:54:13;;;;;;;32.85;11.30;;;1.90;99.90;;;;;;5142300;27;20023;-65
2021/11/10 09:56:41;;;;;;;44.47;12.75;;;1.90;99.90;;;;;;5120528;27;20022;-64
2021/11/10 09:59:07;;;;;;;52.45;13.15;;;1.90;99.90;;;;;;5135317;27;20356;-68
2021/11/10 10:01:35;;;;;;;48.35;13.60;;;2.00;99.90;;;;;;5119497;27;20070;-63
2021/11/10 10:04:02;;;;;;;44.72;12.77;;;2.00;99.90;;;;;;5126422;27;20027;-64
2021/11/10 10:06:29;;;;;;;50.00;14.13;;;2.00;99.90;;;;;;5123584;27;20417;-65
2021/11/10 10:08:56;;;;;;;32.45;9.75;;;2.10;99.90;;;;;;5134927;27;20059;-63
2021/11/10 10:11:22;;;;;;;28.13;9.25;;;2.20;99.90;;;;;;5129747;27;20019;-63
2021/11/10 10:13:48;;;;;;;22.38;7.95;;;2.40;99.90;;;;;;5134301;27;20023;-63
2021/11/10 10:16:20;;;;;;;14.65;4.88;;;2.40;99.90;;;;;;5122869;27;20429;-63
2021/11/10 10:18:46;;;;;;;17.27;5.05;;;2.40;99.90;;;;;;5132753;27;20459;-63
2021/11/10 10:21:13;;;;;;;13.70;4.20;;;2.40;99.90;;;;;;5131221;27;20023;-64
2021/11/10 10:23:49;;;;;;;8.02;3.15;;;2.50;99.90;;;;;;5129460;27;20122;-64
2021/11/10 10:26:20;;;;;;;8.43;2.75;;;2.50;99.90;;;;;;5134201;27;20026;-64
2021/11/10 10:28:51;;;;;;;7.93;2.30;;;2.50;99.90;;;;;;5130672;27;20035;-64
2021/11/10 10:31:21;;;;;;;;;;;2.50;99.90;;;;;;5128864;27;20098;-62
2021/11/10 10:33:51;;;;;;;5.35;2.00;;;2.60;99.90;;;;;;5129106;27;20498;-62
2021/11/10 10:36:22;;;;;;;5.78;2.10;;;2.70;99.90;;;;;;5121405;27;20042;-62
2021/11/10 10:39:00;;;;;;;7.30;2.28;;;2.70;99.90;;;;;;5125947;27;20019;-62
2021/11/10 10:41:31;;;;;;;6.35;1.95;;;2.70;99.90;;;;;;5126570;27;20466;-62
2021/11/10 10:44:07;;;;;;;4.65;1.90;;;2.70;99.90;;;;;;5127032;27;20023;-62
2021/11/10 10:46:39;;;;;;;5.88;1.85;;;2.80;99.90;;;;;;5126948;27;20023;-62
2021/11/10 10:49:14;;;;;;;4.50;1.40;;;2.80;99.90;;;;;;5134065;27;20091;-63
2021/11/10 10:51:41;;;;;;;2.55;1.25;;;2.90;99.90;;;;;;5126325;27;20015;-62
2021/11/10 10:54:09;;;;;;;4.65;1.20;;;2.90;99.90;;;;;;5131282;27;20471;-63
2021/11/10 10:56:37;;;;;;;3.88;1.05;;;2.90;99.90;;;;;;5135580;27;20122;-63
2021/11/10 10:59:09;;;;;;;5.88;1.60;;;3.00;99.90;;;;;;5129517;27;20409;-64
2021/11/10 11:01:51;;;;;;;4.45;1.15;;;3.00;99.90;;;;;;5130232;27;20039;-65
2021/11/10 11:04:20;;;;;;;3.58;1.30;;;3.00;99.90;;;;;;5129443;27;20118;-64
2021/11/10 11:06:49;;;;;;;4.13;1.20;;;3.50;99.90;;;;;;5129698;27;20057;-64
2021/11/10 11:09:31;;;;;;;5.38;1.40;;;3.50;99.90;;;;;;5124024;27;20035;-64
2021/11/10 11:12:05;;;;;;;3.00;0.98;;;3.40;99.90;;;;;;5127583;27;20019;-64
2021/11/10 11:14:45;;;;;;;4.88;1.55;;;3.30;99.90;;;;;;5131517;27;20122;-63
2021/11/10 11:17:26;;;;;;;4.47;1.20;;;3.30;99.90;;;;;;5114077;27;20027;-63
2021/11/10 11:19:57;;;;;;;7.10;1.40;;;3.30;99.90;;;;;;5123541;27;20028;-63
2021/11/10 11:22:25;;;;;;;4.80;0.93;;;3.30;99.90;;;;;;5122362;27;20031;-64
2021/11/10 11:24:51;;;;;;;6.40;1.80;;;4.40;99.90;;;;;;5128790;27;20023;-64
2021/11/10 11:27:28;;;;;;;1.92;0.85;;;6.20;99.90;;;;;;5116140;27;20554;-64
2021/11/10 11:30:14;;;;;;;4.60;0.90;;;7.60;99.90;;;;;;5124383;27;20387;-64
2021/11/10 11:32:42;;;;;;;4.38;1.10;;;7.20;99.90;;;;;;5115043;27;20027;-64
2021/11/10 11:35:25;;;;;;;6.28;1.10;;;6.40;99.90;;;;;;5124267;27;20039;-64
2021/11/10 11:37:52;;;;;;;3.15;0.82;;;6.00;99.90;;;;;;5112936;28;20051;-64
2021/11/10 11:40:20;;;;;;;8.48;1.20;;;5.80;99.90;;;;;;5112338;28;20525;-64
2021/11/10 11:42:50;;;;;;;5.22;1.10;;;5.60;99.90;;;;;;5126874;27;20046;-64
2021/11/10 11:45:17;;;;;;;1.88;0.90;;;5.40;99.90;;;;;;5121168;27;20023;-64
2021/11/10 11:47:46;;;;;;;8.52;1.27;;;5.20;99.90;;;;;;5118540;27;20032;-64
2021/11/10 11:50:12;;;;;;;6.95;0.93;;;5.00;99.90;;;;;;5112671;28;20038;-64
2021/11/10 11:52:39;;;;;;;8.20;1.50;;;4.90;99.90;;;;;;5126027;27;20118;-62
2021/11/10 11:55:26;;;;;;;9.32;1.60;;;4.80;99.90;;;;;;5118587;27;20031;-62
2021/11/10 11:58:07;;;;;;;3.88;1.13;;;4.70;99.90;;;;;;5118491;27;20480;-62
2021/11/10 12:01:08;;;;;;;7.15;1.23;;;4.70;99.90;;;;;;5110734;28;20087;-62
2021/11/10 12:03:40;;;;;;;1.35;1.00;;;4.60;99.90;;;;;;5126398;27;20089;-62
2021/11/10 12:06:07;;;;;;;3.97;1.10;;;4.50;99.90;;;;;;5124638;27;20034;-62
2021/11/10 12:08:59;;;;;;;1.95;0.80;;;4.50;99.90;;;;;;5118305;27;20027;-64
2021/11/10 12:11:34;;;;;;;2.25;1.05;;;4.50;99.90;;;;;;5118386;27;20023;-62
2021/11/10 12:14:14;;;;;;;5.20;1.27;;;4.40;99.90;;;;;;5112009;28;20016;-62
2021/11/10 12:16:46;;;;;;;2.33;1.00;;;4.30;99.90;;;;;;5126194;27;20087;-62
2021/11/10 12:19:37;;;;;;;6.72;1.15;;;4.30;99.90;;;;;;5119739;27;20035;-62
2021/11/10 12:22:17;;;;;;;4.93;0.98;;;4.20;99.90;;;;;;5118014;27;20016;-62
2021/11/10 12:24:57;;;;;;;3.08;0.70;;;4.10;99.90;;;;;;5120459;27;20108;-62
2021/11/10 12:27:32;;;;;;;4.07;0.90;;;4.10;99.90;;;;;;5127264;27;20020;-62
2021/11/10 12:30:06;;;;;;;5.07;1.50;;;4.10;99.90;;;;;;5122750;27;20035;-62
2021/11/10 12:32:36;;;;;;;2.65;0.90;;;4.10;99.90;;;;;;5112012;28;20019;-62
2021/11/10 12:35:05;;;;;;;5.45;1.10;;;4.00;99.90;;;;;;5111884;28;20023;-62
2021/11/10 12:37:34;;;;;;;3.88;1.45;;;4.00;99.90;;;;;;5111547;28;20024;-63
2021/11/10 12:40:19;;;;;;;4.63;1.13;;;4.10;99.90;;;;;;5111632;28;20110;-64
2021/11/10 12:42:54;;;;;;;3.60;1.05;;;4.00;99.90;;;;;;5126001;28;20375;-62
2021/11/10 12:45:28;;;;;;;6.28;1.23;;;4.00;99.90;;;;;;5120605;28;20030;-62
2021/11/10 12:48:00;;;;;;;2.65;0.93;;;4.10;99.90;;;;;;5117561;28;20035;-62
2021/11/10 12:50:30;;;;;;;5.38;1.80;;;4.10;99.90;;;;;;5123237;28;20510;-62
2021/11/10 12:52:57;;;;;;;;;;;4.10;99.90;;;;;;5125903;28;20056;-62
2021/11/10 12:55:25;;;;;;;2.70;1.10;;;4.10;99.90;;;;;;5111042;28;19908;-62
2021/11/10 12:57:51;;;;;;;5.07;1.35;;;4.00;99.90;;;;;;5125262;28;20524;-62
2021/11/10 13:00:20;;;;;;;5.13;1.38;;;3.90;99.90;;;;;;5125750;27;20027;-62
2021/11/10 13:02:49;;;;;;;4.80;1.30;;;3.90;99.90;;;;;;5123702;28;20086;-63
2021/11/10 13:05:24;;;;;;;7.15;1.10;;;3.90;99.90;;;;;;5117134;28;20019;-63
2021/11/10 13:08:20;;;;;;;3.15;1.00;;;4.10;99.90;;;;;;5119890;28;20024;-62
2021/11/10 13:10:46;;;;;;;3.53;0.90;;;4.40;99.90;;;;;;5111791;28;20024;-63
2021/11/10 13:13:11;;;;;;;1.85;0.93;;;4.40;99.90;;;;;;5125686;27;20496;-62
2021/11/10 13:15:41;;;;;;;6.80;1.15;;;4.30;99.90;;;;;;5126805;28;20031;-63
2021/11/10 13:18:18;;;;;;;4.30;1.30;;;4.20;99.90;;;;;;5128617;28;20020;-63
2021/11/10 13:20:46;;;;;;;2.17;0.90;;;4.20;99.90;;;;;;5122822;28;20019;-63
2021/11/10 13:23:16;;;;;;;2.95;1.27;;;4.10;99.90;;;;;;5126652;28;20023;-62
2021/11/10 13:25:42;;;;;;;3.90;1.23;;;4.10;99.90;;;;;;5126711;28;20119;-63
2021/11/10 13:28:09;;;;;;;10.40;1.90;;;4.10;99.90;;;;;;5124205;28;20471;-62
2021/11/10 13:30:35;;;;;;;10.05;2.08;;;4.10;99.90;;;;;;5111402;28;20063;-62
2021/11/10 13:33:22;;;;;;;5.20;1.73;;;4.00;99.90;;;;;;5125641;28;20518;-62